sensor_id;sensor_type;location;lat;lon;timestamp;pressure;altitude;pressure_sealevel;temperature
10058;BMP180;5068;51.286;7.518;2022-07-10T00:01:29;100376.00;;;18.80
10058;BMP180;5068;51.286;7.518;2022-07-10T00:03:04;100380.00;;;18.70
10058;BMP180;5068;51.286;7.518;2022-07-10T00:04:42;100372.00;;;18.70
10058;BMP180;5068;51.286;7.518;2022-07-10T00:06:17;100374.00;;;18.70
10058;BMP180;5068;51.286;7.518;2022-07-10T00:07:52;100371.00;;;18.60
10058;BMP180;5068;51.286;7.518;2022-07-10T00:09:28;100372.00;;;18.60
10058;BMP180;5068;51.286;7.518;2022-07-10T00:11:03;100370.00;;;18.60
10058;BMP180;5068;51.286;7.518;2022-07-10T00:12:39;100371.00;;;18.50
10058;BMP180;5068;51.286;7.518;2022-07-10T00:14:17;100372.00;;;18.50
10058;BMP180;5068;51.286;7.518;2022-07-10T00:15:53;100363.00;;;18.50
10058;BMP180;5068;51.286;7.518;2022-07-10T00:17:27;100371.00;;;18.50
10058;BMP180;5068;51.286;7.518;2022-07-10T00:19:02;100368.00;;;18.50
10058;BMP180;5068;51.286;7.518;2022-07-10T00:20:37;100364.00;;;18.50
10058;BMP180;5068;51.286;7.518;2022-07-10T00:22:12;100371.00;;;18.50
10058;BMP180;5068;51.286;7.518;2022-07-10T00:23:46;100372.00;;;18.50
10058;BMP180;5068;51.286;7.518;2022-07-10T00:25:20;100357.00;;;18.50
10058;BMP180;5068;51.286;7.518;2022-07-10T00:26:56;100362.00;;;18.50
10058;BMP180;5068;51.286;7.518;2022-07-10T00:28:29;100365.00;;;18.50
10058;BMP180;5068;51.286;7.518;2022-07-10T00:30:09;100357.00;;;18.50
10058;BMP180;5068;51.286;7.518;2022-07-10T00:31:44;100360.00;;;18.50
10058;BMP180;5068;51.286;7.518;2022-07-10T00:33:18;100370.00;;;18.50
10058;BMP180;5068;51.286;7.518;2022-07-10T00:34:53;100369.00;;;18.40
10058;BMP180;5068;51.286;7.518;2022-07-10T00:36:26;100366.00;;;18.40
10058;BMP180;5068;51.286;7.518;2022-07-10T00:38:02;100356.00;;;18.40
10058;BMP180;5068;51.286;7.518;2022-07-10T00:39:36;100361.00;;;18.30
10058;BMP180;5068;51.286;7.518;2022-07-10T00:41:08;100368.00;;;18.30
10058;BMP180;5068;51.286;7.518;2022-07-10T00:42:44;100365.00;;;18.20
10058;BMP180;5068;51.286;7.518;2022-07-10T00:44:19;100362.00;;;18.20
10058;BMP180;5068;51.286;7.518;2022-07-10T00:45:53;100354.00;;;18.20
10058;BMP180;5068;51.286;7.518;2022-07-10T00:47:28;100360.00;;;18.20
10058;BMP180;5068;51.286;7.518;2022-07-10T00:49:02;100358.00;;;18.20
10058;BMP180;5068;51.286;7.518;2022-07-10T00:50:38;100360.00;;;18.20
10058;BMP180;5068;51.286;7.518;2022-07-10T00:52:16;100364.00;;;18.20
10058;BMP180;5068;51.286;7.518;2022-07-10T00:53:49;100356.00;;;18.10
10058;BMP180;5068;51.286;7.518;2022-07-10T00:55:26;100355.00;;;18.10
10058;BMP180;5068;51.286;7.518;2022-07-10T00:57:01;100355.00;;;18.10
10058;BMP180;5068;51.286;7.518;2022-07-10T00:58:39;100354.00;;;18.10
10058;BMP180;5068;51.286;7.518;2022-07-10T01:00:16;100346.00;;;18.10
10058;BMP180;5068;51.286;7.518;2022-07-10T01:01:57;100347.00;;;18.10
10058;BMP180;5068;51.286;7.518;2022-07-10T01:03:39;100338.00;;;18.10
10058;BMP180;5068;51.286;7.518;2022-07-10T01:05:17;100340.00;;;18.10
10058;BMP180;5068;51.286;7.518;2022-07-10T01:06:55;100353.00;;;18.10
10058;BMP180;5068;51.286;7.518;2022-07-10T01:08:32;100340.00;;;18.10
10058;BMP180;5068;51.286;7.518;2022-07-10T01:10:11;100344.00;;;18.10
10058;BMP180;5068;51.286;7.518;2022-07-10T01:11:49;100337.00;;;18.10
10058;BMP180;5068;51.286;7.518;2022-07-10T01:13:28;100344.00;;;18.10
10058;BMP180;5068;51.286;7.518;2022-07-10T01:15:08;100346.00;;;18.10
10058;BMP180;5068;51.286;7.518;2022-07-10T01:16:46;100337.00;;;18.10
10058;BMP180;5068;51.286;7.518;2022-07-10T01:18:20;100334.00;;;18.10
10058;BMP180;5068;51.286;7.518;2022-07-10T01:19:54;100340.00;;;18.10
10058;BMP180;5068;51.286;7.518;2022-07-10T01:21:31;100336.00;;;18.10
10058;BMP180;5068;51.286;7.518;2022-07-10T01:23:06;100331.00;;;18.10
10058;BMP180;5068;51.286;7.518;2022-07-10T01:24:42;100337.00;;;18.10
10058;BMP180;5068;51.286;7.518;2022-07-10T01:26:24;100325.00;;;18.10
10058;BMP180;5068;51.286;7.518;2022-07-10T01:27:58;100324.00;;;18.00
10058;BMP180;5068;51.286;7.518;2022-07-10T01:29:32;100331.00;;;18.10
10058;BMP180;5068;51.286;7.518;2022-07-10T01:31:06;100334.00;;;18.10
10058;BMP180;5068;51.286;7.518;2022-07-10T01:32:42;100324.00;;;18.10
10058;BMP180;5068;51.286;7.518;2022-07-10T01:34:18;100323.00;;;18.10
10058;BMP180;5068;51.286;7.518;2022-07-10T01:35:53;100312.00;;;18.10
10058;BMP180;5068;51.286;7.518;2022-07-10T01:37:28;100321.00;;;18.10
10058;BMP180;5068;51.286;7.518;2022-07-10T01:39:05;100324.00;;;18.10
10058;BMP180;5068;51.286;7.518;2022-07-10T01:40:41;100325.00;;;18.10
10058;BMP180;5068;51.286;7.518;2022-07-10T01:42:23;100317.00;;;18.10
10058;BMP180;5068;51.286;7.518;2022-07-10T01:43:55;100315.00;;;18.10
10058;BMP180;5068;51.286;7.518;2022-07-10T01:45:34;100309.00;;;18.10
10058;BMP180;5068;51.286;7.518;2022-07-10T01:47:08;100319.00;;;18.10
10058;BMP180;5068;51.286;7.518;2022-07-10T01:48:42;100312.00;;;18.10
10058;BMP180;5068;51.286;7.518;2022-07-10T01:50:17;100311.00;;;18.00
10058;BMP180;5068;51.286;7.518;2022-07-10T01:51:50;100313.00;;;18.00
10058;BMP180;5068;51.286;7.518;2022-07-10T01:53:32;100306.00;;;18.00
10058;BMP180;5068;51.286;7.518;2022-07-10T01:55:07;100306.00;;;18.00
10058;BMP180;5068;51.286;7.518;2022-07-10T01:56:44;100307.00;;;18.00
10058;BMP180;5068;51.286;7.518;2022-07-10T01:58:22;100308.00;;;17.90
10058;BMP180;5068;51.286;7.518;2022-07-10T01:59:55;100301.00;;;17.90
10058;BMP180;5068;51.286;7.518;2022-07-10T02:01:35;100300.00;;;17.90
10058;BMP180;5068;51.286;7.518;2022-07-10T02:03:11;100310.00;;;17.80
10058;BMP180;5068;51.286;7.518;2022-07-10T02:05:08;100306.00;;;17.80
10058;BMP180;5068;51.286;7.518;2022-07-10T02:06:45;100313.00;;;17.80
10058;BMP180;5068;51.286;7.518;2022-07-10T02:08:19;100309.00;;;17.80
10058;BMP180;5068;51.286;7.518;2022-07-10T02:10:00;100313.00;;;17.80
10058;BMP180;5068;51.286;7.518;2022-07-10T02:11:33;100292.00;;;17.80
10058;BMP180;5068;51.286;7.518;2022-07-10T02:13:11;100297.00;;;17.80
10058;BMP180;5068;51.286;7.518;2022-07-10T02:14:52;100295.00;;;17.80
10058;BMP180;5068;51.286;7.518;2022-07-10T02:16:31;100299.00;;;17.80
10058;BMP180;5068;51.286;7.518;2022-07-10T02:18:04;100290.00;;;17.80
10058;BMP180;5068;51.286;7.518;2022-07-10T02:19:38;100300.00;;;17.80
10058;BMP180;5068;51.286;7.518;2022-07-10T02:21:12;100295.00;;;17.80
10058;BMP180;5068;51.286;7.518;2022-07-10T02:22:46;100288.00;;;17.80
10058;BMP180;5068;51.286;7.518;2022-07-10T02:24:23;100289.00;;;17.90
10058;BMP180;5068;51.286;7.518;2022-07-10T02:25:58;100288.00;;;17.90
10058;BMP180;5068;51.286;7.518;2022-07-10T02:27:32;100274.00;;;17.90
10058;BMP180;5068;51.286;7.518;2022-07-10T02:29:14;100282.00;;;17.90
10058;BMP180;5068;51.286;7.518;2022-07-10T02:30:49;100279.00;;;17.90
10058;BMP180;5068;51.286;7.518;2022-07-10T02:32:24;100275.00;;;17.90
10058;BMP180;5068;51.286;7.518;2022-07-10T02:34:03;100279.00;;;17.90
10058;BMP180;5068;51.286;7.518;2022-07-10T02:35:38;100290.00;;;17.90
10058;BMP180;5068;51.286;7.518;2022-07-10T02:37:12;100277.00;;;17.90
10058;BMP180;5068;51.286;7.518;2022-07-10T02:38:49;100279.00;;;17.90
10058;BMP180;5068;51.286;7.518;2022-07-10T02:40:22;100271.00;;;17.90
10058;BMP180;5068;51.286;7.518;2022-07-10T02:41:58;100275.00;;;17.90
10058;BMP180;5068;51.286;7.518;2022-07-10T02:43:32;100283.00;;;17.90
10058;BMP180;5068;51.286;7.518;2022-07-10T02:45:08;100276.00;;;17.90
10058;BMP180;5068;51.286;7.518;2022-07-10T02:46:45;100268.00;;;17.90
10058;BMP180;5068;51.286;7.518;2022-07-10T02:48:21;100281.00;;;17.90
10058;BMP180;5068;51.286;7.518;2022-07-10T02:50:03;100283.00;;;17.90
10058;BMP180;5068;51.286;7.518;2022-07-10T02:51:36;100282.00;;;17.90
10058;BMP180;5068;51.286;7.518;2022-07-10T02:53:09;100283.00;;;17.90
10058;BMP180;5068;51.286;7.518;2022-07-10T02:54:43;100283.00;;;17.80
10058;BMP180;5068;51.286;7.518;2022-07-10T02:56:16;100279.00;;;17.80
10058;BMP180;5068;51.286;7.518;2022-07-10T02:57:54;100276.00;;;17.70
10058;BMP180;5068;51.286;7.518;2022-07-10T02:59:32;100280.00;;;17.70
10058;BMP180;5068;51.286;7.518;2022-07-10T03:01:06;100278.00;;;17.70
10058;BMP180;5068;51.286;7.518;2022-07-10T03:02:42;100283.00;;;17.70
10058;BMP180;5068;51.286;7.518;2022-07-10T03:04:18;100289.00;;;17.70
10058;BMP180;5068;51.286;7.518;2022-07-10T03:05:51;100293.00;;;17.70
10058;BMP180;5068;51.286;7.518;2022-07-10T03:07:29;100285.00;;;17.60
10058;BMP180;5068;51.286;7.518;2022-07-10T03:09:08;100285.00;;;17.70
10058;BMP180;5068;51.286;7.518;2022-07-10T03:10:42;100276.00;;;17.70
10058;BMP180;5068;51.286;7.518;2022-07-10T03:12:17;100282.00;;;17.60
10058;BMP180;5068;51.286;7.518;2022-07-10T03:13:54;100285.00;;;17.60
10058;BMP180;5068;51.286;7.518;2022-07-10T03:15:27;100280.00;;;17.60
10058;BMP180;5068;51.286;7.518;2022-07-10T03:17:01;100281.00;;;17.60
10058;BMP180;5068;51.286;7.518;2022-07-10T03:18:34;100280.00;;;17.60
10058;BMP180;5068;51.286;7.518;2022-07-10T03:20:09;100285.00;;;17.60
10058;BMP180;5068;51.286;7.518;2022-07-10T03:21:48;100280.00;;;17.60
10058;BMP180;5068;51.286;7.518;2022-07-10T03:23:22;100281.00;;;17.60
10058;BMP180;5068;51.286;7.518;2022-07-10T03:24:57;100274.00;;;17.60
10058;BMP180;5068;51.286;7.518;2022-07-10T03:26:35;100281.00;;;17.60
10058;BMP180;5068;51.286;7.518;2022-07-10T03:28:11;100280.00;;;17.70
10058;BMP180;5068;51.286;7.518;2022-07-10T03:29:46;100272.00;;;17.60
10058;BMP180;5068;51.286;7.518;2022-07-10T03:31:21;100268.00;;;17.60
10058;BMP180;5068;51.286;7.518;2022-07-10T03:32:59;100275.00;;;17.60
10058;BMP180;5068;51.286;7.518;2022-07-10T03:34:33;100267.00;;;17.60
10058;BMP180;5068;51.286;7.518;2022-07-10T03:36:06;100272.00;;;17.60
10058;BMP180;5068;51.286;7.518;2022-07-10T03:37:43;100272.00;;;17.60
10058;BMP180;5068;51.286;7.518;2022-07-10T03:39:17;100277.00;;;17.60
10058;BMP180;5068;51.286;7.518;2022-07-10T03:40:51;100266.00;;;17.60
10058;BMP180;5068;51.286;7.518;2022-07-10T03:42:28;100271.00;;;17.60
10058;BMP180;5068;51.286;7.518;2022-07-10T03:44:02;100266.00;;;17.60
10058;BMP180;5068;51.286;7.518;2022-07-10T03:45:38;100270.00;;;17.50
10058;BMP180;5068;51.286;7.518;2022-07-10T03:47:11;100263.00;;;17.50
10058;BMP180;5068;51.286;7.518;2022-07-10T03:48:45;100270.00;;;17.50
10058;BMP180;5068;51.286;7.518;2022-07-10T03:50:19;100267.00;;;17.50
10058;BMP180;5068;51.286;7.518;2022-07-10T03:51:54;100272.00;;;17.50
10058;BMP180;5068;51.286;7.518;2022-07-10T03:53:27;100274.00;;;17.50
10058;BMP180;5068;51.286;7.518;2022-07-10T03:55:04;100262.00;;;17.50
10058;BMP180;5068;51.286;7.518;2022-07-10T03:56:42;100269.00;;;17.50
10058;BMP180;5068;51.286;7.518;2022-07-10T03:58:34;100269.00;;;17.50
10058;BMP180;5068;51.286;7.518;2022-07-10T04:00:10;100273.00;;;17.50
10058;BMP180;5068;51.286;7.518;2022-07-10T04:01:45;100278.00;;;17.50
10058;BMP180;5068;51.286;7.518;2022-07-10T04:03:18;100272.00;;;17.50
10058;BMP180;5068;51.286;7.518;2022-07-10T04:04:52;100281.00;;;17.50
10058;BMP180;5068;51.286;7.518;2022-07-10T04:06:27;100276.00;;;17.50
10058;BMP180;5068;51.286;7.518;2022-07-10T04:08:05;100278.00;;;17.50
10058;BMP180;5068;51.286;7.518;2022-07-10T04:09:40;100276.00;;;17.50
10058;BMP180;5068;51.286;7.518;2022-07-10T04:11:13;100284.00;;;17.50
10058;BMP180;5068;51.286;7.518;2022-07-10T04:12:49;100285.00;;;17.50
10058;BMP180;5068;51.286;7.518;2022-07-10T04:14:23;100285.00;;;17.50
10058;BMP180;5068;51.286;7.518;2022-07-10T04:15:59;100291.00;;;17.50
10058;BMP180;5068;51.286;7.518;2022-07-10T04:17:35;100282.00;;;17.60
10058;BMP180;5068;51.286;7.518;2022-07-10T04:19:08;100283.00;;;17.60
10058;BMP180;5068;51.286;7.518;2022-07-10T04:20:41;100285.00;;;17.60
10058;BMP180;5068;51.286;7.518;2022-07-10T04:22:15;100275.00;;;17.60
10058;BMP180;5068;51.286;7.518;2022-07-10T04:23:49;100285.00;;;17.60
10058;BMP180;5068;51.286;7.518;2022-07-10T04:25:24;100285.00;;;17.50
10058;BMP180;5068;51.286;7.518;2022-07-10T04:26:58;100284.00;;;17.50
10058;BMP180;5068;51.286;7.518;2022-07-10T04:28:31;100285.00;;;17.50
10058;BMP180;5068;51.286;7.518;2022-07-10T04:30:07;100282.00;;;17.50
10058;BMP180;5068;51.286;7.518;2022-07-10T04:31:41;100286.00;;;17.60
10058;BMP180;5068;51.286;7.518;2022-07-10T04:33:21;100285.00;;;17.60
10058;BMP180;5068;51.286;7.518;2022-07-10T04:34:56;100280.00;;;17.60
10058;BMP180;5068;51.286;7.518;2022-07-10T04:36:31;100283.00;;;17.60
10058;BMP180;5068;51.286;7.518;2022-07-10T04:38:03;100282.00;;;17.60
10058;BMP180;5068;51.286;7.518;2022-07-10T04:39:36;100281.00;;;17.60
10058;BMP180;5068;51.286;7.518;2022-07-10T04:41:12;100288.00;;;17.60
10058;BMP180;5068;51.286;7.518;2022-07-10T04:42:48;100283.00;;;17.70
10058;BMP180;5068;51.286;7.518;2022-07-10T04:44:24;100280.00;;;17.70
10058;BMP180;5068;51.286;7.518;2022-07-10T04:46:01;100293.00;;;17.70
10058;BMP180;5068;51.286;7.518;2022-07-10T04:47:35;100292.00;;;17.70
10058;BMP180;5068;51.286;7.518;2022-07-10T04:49:11;100283.00;;;17.70
10058;BMP180;5068;51.286;7.518;2022-07-10T04:50:44;100288.00;;;17.70
10058;BMP180;5068;51.286;7.518;2022-07-10T04:52:18;100285.00;;;17.70
10058;BMP180;5068;51.286;7.518;2022-07-10T04:53:51;100284.00;;;17.70
10058;BMP180;5068;51.286;7.518;2022-07-10T04:55:25;100289.00;;;17.70
10058;BMP180;5068;51.286;7.518;2022-07-10T04:56:59;100296.00;;;17.80
10058;BMP180;5068;51.286;7.518;2022-07-10T04:58:33;100295.00;;;17.80
10058;BMP180;5068;51.286;7.518;2022-07-10T05:00:11;100295.00;;;17.80
10058;BMP180;5068;51.286;7.518;2022-07-10T05:01:57;100297.00;;;17.70
10058;BMP180;5068;51.286;7.518;2022-07-10T05:03:31;100294.00;;;17.80
10058;BMP180;5068;51.286;7.518;2022-07-10T05:05:07;100296.00;;;17.80
10058;BMP180;5068;51.286;7.518;2022-07-10T05:06:43;100293.00;;;17.80
10058;BMP180;5068;51.286;7.518;2022-07-10T05:08:21;100298.00;;;17.70
10058;BMP180;5068;51.286;7.518;2022-07-10T05:09:55;100294.00;;;17.80
10058;BMP180;5068;51.286;7.518;2022-07-10T05:11:28;100296.00;;;17.80
10058;BMP180;5068;51.286;7.518;2022-07-10T05:13:03;100298.00;;;17.80
10058;BMP180;5068;51.286;7.518;2022-07-10T05:14:37;100297.00;;;17.80
10058;BMP180;5068;51.286;7.518;2022-07-10T05:16:11;100297.00;;;17.80
10058;BMP180;5068;51.286;7.518;2022-07-10T05:17:51;100309.00;;;17.80
10058;BMP180;5068;51.286;7.518;2022-07-10T05:19:25;100296.00;;;17.80
10058;BMP180;5068;51.286;7.518;2022-07-10T05:21:00;100308.00;;;17.80
10058;BMP180;5068;51.286;7.518;2022-07-10T05:22:34;100303.00;;;17.80
10058;BMP180;5068;51.286;7.518;2022-07-10T05:24:12;100299.00;;;17.90
10058;BMP180;5068;51.286;7.518;2022-07-10T05:25:46;100305.00;;;17.90
10058;BMP180;5068;51.286;7.518;2022-07-10T05:27:19;100308.00;;;17.90
10058;BMP180;5068;51.286;7.518;2022-07-10T05:28:53;100305.00;;;17.90
10058;BMP180;5068;51.286;7.518;2022-07-10T05:30:26;100305.00;;;17.90
10058;BMP180;5068;51.286;7.518;2022-07-10T05:32:00;100309.00;;;17.90
10058;BMP180;5068;51.286;7.518;2022-07-10T05:33:35;100302.00;;;17.90
10058;BMP180;5068;51.286;7.518;2022-07-10T05:35:10;100301.00;;;17.90
10058;BMP180;5068;51.286;7.518;2022-07-10T05:36:45;100304.00;;;18.00
10058;BMP180;5068;51.286;7.518;2022-07-10T05:38:22;100299.00;;;18.00
10058;BMP180;5068;51.286;7.518;2022-07-10T05:39:59;100308.00;;;18.00
10058;BMP180;5068;51.286;7.518;2022-07-10T05:41:33;100308.00;;;18.00
10058;BMP180;5068;51.286;7.518;2022-07-10T05:43:06;100306.00;;;18.00
10058;BMP180;5068;51.286;7.518;2022-07-10T05:44:42;100306.00;;;18.00
10058;BMP180;5068;51.286;7.518;2022-07-10T05:46:19;100298.00;;;18.00
10058;BMP180;5068;51.286;7.518;2022-07-10T05:47:52;100304.00;;;18.00
10058;BMP180;5068;51.286;7.518;2022-07-10T05:49:26;100304.00;;;18.00
10058;BMP180;5068;51.286;7.518;2022-07-10T05:50:59;100299.00;;;18.00
10058;BMP180;5068;51.286;7.518;2022-07-10T05:52:54;100293.00;;;18.00
10058;BMP180;5068;51.286;7.518;2022-07-10T05:54:31;100297.00;;;18.00
10058;BMP180;5068;51.286;7.518;2022-07-10T05:56:07;100304.00;;;18.00
10058;BMP180;5068;51.286;7.518;2022-07-10T05:57:41;100293.00;;;18.10
10058;BMP180;5068;51.286;7.518;2022-07-10T05:59:17;100297.00;;;18.10
10058;BMP180;5068;51.286;7.518;2022-07-10T06:00:52;100296.00;;;18.10
10058;BMP180;5068;51.286;7.518;2022-07-10T06:02:28;100303.00;;;18.20
10058;BMP180;5068;51.286;7.518;2022-07-10T06:04:04;100302.00;;;18.20
10058;BMP180;5068;51.286;7.518;2022-07-10T06:05:38;100297.00;;;18.20
10058;BMP180;5068;51.286;7.518;2022-07-10T06:07:14;100296.00;;;18.20
10058;BMP180;5068;51.286;7.518;2022-07-10T06:08:50;100295.00;;;18.20
10058;BMP180;5068;51.286;7.518;2022-07-10T06:10:24;100302.00;;;18.20
10058;BMP180;5068;51.286;7.518;2022-07-10T06:12:00;100310.00;;;18.30
10058;BMP180;5068;51.286;7.518;2022-07-10T06:13:36;100311.00;;;18.30
10058;BMP180;5068;51.286;7.518;2022-07-10T06:15:12;100309.00;;;18.30
10058;BMP180;5068;51.286;7.518;2022-07-10T06:16:50;100312.00;;;18.30
10058;BMP180;5068;51.286;7.518;2022-07-10T06:18:26;100306.00;;;18.30
10058;BMP180;5068;51.286;7.518;2022-07-10T06:19:59;100310.00;;;18.30
10058;BMP180;5068;51.286;7.518;2022-07-10T06:21:33;100322.00;;;18.30
10058;BMP180;5068;51.286;7.518;2022-07-10T06:23:08;100316.00;;;18.30
10058;BMP180;5068;51.286;7.518;2022-07-10T06:24:44;100306.00;;;18.30
10058;BMP180;5068;51.286;7.518;2022-07-10T06:26:16;100310.00;;;18.30
10058;BMP180;5068;51.286;7.518;2022-07-10T06:27:50;100306.00;;;18.30
10058;BMP180;5068;51.286;7.518;2022-07-10T06:29:24;100303.00;;;18.30
10058;BMP180;5068;51.286;7.518;2022-07-10T06:31:00;100305.00;;;18.30
10058;BMP180;5068;51.286;7.518;2022-07-10T06:32:37;100313.00;;;18.30
10058;BMP180;5068;51.286;7.518;2022-07-10T06:34:13;100315.00;;;18.30
10058;BMP180;5068;51.286;7.518;2022-07-10T06:35:46;100317.00;;;18.30
10058;BMP180;5068;51.286;7.518;2022-07-10T06:37:21;100330.00;;;18.30
10058;BMP180;5068;51.286;7.518;2022-07-10T06:38:54;100318.00;;;18.30
10058;BMP180;5068;51.286;7.518;2022-07-10T06:40:35;100326.00;;;18.40
10058;BMP180;5068;51.286;7.518;2022-07-10T06:42:09;100330.00;;;18.40
10058;BMP180;5068;51.286;7.518;2022-07-10T06:43:46;100326.00;;;18.40
10058;BMP180;5068;51.286;7.518;2022-07-10T06:45:22;100333.00;;;18.40
10058;BMP180;5068;51.286;7.518;2022-07-10T06:46:57;100316.00;;;18.40
10058;BMP180;5068;51.286;7.518;2022-07-10T06:48:47;100332.00;;;18.30
10058;BMP180;5068;51.286;7.518;2022-07-10T06:50:25;100322.00;;;18.30
10058;BMP180;5068;51.286;7.518;2022-07-10T06:52:02;100320.00;;;18.40
10058;BMP180;5068;51.286;7.518;2022-07-10T06:53:45;100322.00;;;18.40
10058;BMP180;5068;51.286;7.518;2022-07-10T06:55:20;100333.00;;;18.40
10058;BMP180;5068;51.286;7.518;2022-07-10T06:56:55;100319.00;;;18.50
10058;BMP180;5068;51.286;7.518;2022-07-10T06:58:29;100303.00;;;18.50
10058;BMP180;5068;51.286;7.518;2022-07-10T07:00:07;100326.00;;;18.50
10058;BMP180;5068;51.286;7.518;2022-07-10T07:01:42;100314.00;;;18.50
10058;BMP180;5068;51.286;7.518;2022-07-10T07:03:16;100312.00;;;18.50
10058;BMP180;5068;51.286;7.518;2022-07-10T07:04:50;100312.00;;;18.60
10058;BMP180;5068;51.286;7.518;2022-07-10T07:06:23;100310.00;;;18.60
10058;BMP180;5068;51.286;7.518;2022-07-10T07:07:55;100310.00;;;18.60
10058;BMP180;5068;51.286;7.518;2022-07-10T07:09:29;100297.00;;;18.70
10058;BMP180;5068;51.286;7.518;2022-07-10T07:11:05;100306.00;;;18.70
10058;BMP180;5068;51.286;7.518;2022-07-10T07:12:43;100313.00;;;18.80
10058;BMP180;5068;51.286;7.518;2022-07-10T07:14:17;100316.00;;;18.80
10058;BMP180;5068;51.286;7.518;2022-07-10T07:15:50;100311.00;;;18.80
10058;BMP180;5068;51.286;7.518;2022-07-10T07:17:32;100309.00;;;18.80
10058;BMP180;5068;51.286;7.518;2022-07-10T07:19:22;100302.00;;;18.90
10058;BMP180;5068;51.286;7.518;2022-07-10T07:21:03;100299.00;;;18.90
10058;BMP180;5068;51.286;7.518;2022-07-10T07:23:03;100302.00;;;18.90
10058;BMP180;5068;51.286;7.518;2022-07-10T07:24:45;100294.00;;;19.00
10058;BMP180;5068;51.286;7.518;2022-07-10T07:26:18;100296.00;;;19.00
10058;BMP180;5068;51.286;7.518;2022-07-10T07:27:56;100293.00;;;19.10
10058;BMP180;5068;51.286;7.518;2022-07-10T07:29:31;100290.00;;;19.20
10058;BMP180;5068;51.286;7.518;2022-07-10T07:31:05;100296.00;;;19.20
10058;BMP180;5068;51.286;7.518;2022-07-10T07:32:47;100303.00;;;19.20
10058;BMP180;5068;51.286;7.518;2022-07-10T07:34:21;100297.00;;;19.30
10058;BMP180;5068;51.286;7.518;2022-07-10T07:35:54;100305.00;;;19.30
10058;BMP180;5068;51.286;7.518;2022-07-10T07:37:40;100302.00;;;19.30
10058;BMP180;5068;51.286;7.518;2022-07-10T07:39:13;100298.00;;;19.30
10058;BMP180;5068;51.286;7.518;2022-07-10T07:40:49;100301.00;;;19.30
10058;BMP180;5068;51.286;7.518;2022-07-10T07:42:24;100300.00;;;19.30
10058;BMP180;5068;51.286;7.518;2022-07-10T07:44:00;100296.00;;;19.30
10058;BMP180;5068;51.286;7.518;2022-07-10T07:45:35;100295.00;;;19.30
10058;BMP180;5068;51.286;7.518;2022-07-10T07:47:09;100313.00;;;19.30
10058;BMP180;5068;51.286;7.518;2022-07-10T07:48:44;100313.00;;;19.30
10058;BMP180;5068;51.286;7.518;2022-07-10T07:50:23;100312.00;;;19.30
10058;BMP180;5068;51.286;7.518;2022-07-10T07:51:58;100299.00;;;19.30
10058;BMP180;5068;51.286;7.518;2022-07-10T07:53:36;100309.00;;;19.30
10058;BMP180;5068;51.286;7.518;2022-07-10T07:55:10;100313.00;;;19.40
10058;BMP180;5068;51.286;7.518;2022-07-10T07:56:44;100316.00;;;19.40
10058;BMP180;5068;51.286;7.518;2022-07-10T07:58:17;100309.00;;;19.40
10058;BMP180;5068;51.286;7.518;2022-07-10T07:59:52;100313.00;;;19.40
10058;BMP180;5068;51.286;7.518;2022-07-10T08:01:26;100318.00;;;19.40
10058;BMP180;5068;51.286;7.518;2022-07-10T08:03:01;100312.00;;;19.40
10058;BMP180;5068;51.286;7.518;2022-07-10T08:04:37;100303.00;;;19.30
10058;BMP180;5068;51.286;7.518;2022-07-10T08:06:13;100309.00;;;19.30
10058;BMP180;5068;51.286;7.518;2022-07-10T08:07:53;100315.00;;;19.30
10058;BMP180;5068;51.286;7.518;2022-07-10T08:09:29;100319.00;;;19.30
10058;BMP180;5068;51.286;7.518;2022-07-10T08:11:03;100314.00;;;19.30
10058;BMP180;5068;51.286;7.518;2022-07-10T08:12:44;100314.00;;;19.20
10058;BMP180;5068;51.286;7.518;2022-07-10T08:14:23;100323.00;;;19.20
10058;BMP180;5068;51.286;7.518;2022-07-10T08:16:00;100325.00;;;19.20
10058;BMP180;5068;51.286;7.518;2022-07-10T08:17:40;100326.00;;;19.10
10058;BMP180;5068;51.286;7.518;2022-07-10T08:19:15;100320.00;;;19.00
10058;BMP180;5068;51.286;7.518;2022-07-10T08:20:50;100322.00;;;19.00
10058;BMP180;5068;51.286;7.518;2022-07-10T08:22:27;100322.00;;;19.00
10058;BMP180;5068;51.286;7.518;2022-07-10T08:24:10;100332.00;;;19.00
10058;BMP180;5068;51.286;7.518;2022-07-10T08:25:49;100330.00;;;18.90
10058;BMP180;5068;51.286;7.518;2022-07-10T08:27:25;100323.00;;;18.90
10058;BMP180;5068;51.286;7.518;2022-07-10T08:28:58;100332.00;;;19.00
10058;BMP180;5068;51.286;7.518;2022-07-10T08:30:33;100332.00;;;19.00
10058;BMP180;5068;51.286;7.518;2022-07-10T08:32:09;100323.00;;;19.00
10058;BMP180;5068;51.286;7.518;2022-07-10T08:33:45;100325.00;;;19.00
10058;BMP180;5068;51.286;7.518;2022-07-10T08:35:20;100330.00;;;19.00
10058;BMP180;5068;51.286;7.518;2022-07-10T08:36:53;100315.00;;;19.00
10058;BMP180;5068;51.286;7.518;2022-07-10T08:38:27;100318.00;;;19.00
10058;BMP180;5068;51.286;7.518;2022-07-10T08:40:00;100321.00;;;19.00
10058;BMP180;5068;51.286;7.518;2022-07-10T08:41:36;100333.00;;;19.00
10058;BMP180;5068;51.286;7.518;2022-07-10T08:43:09;100332.00;;;19.00
10058;BMP180;5068;51.286;7.518;2022-07-10T08:44:48;100319.00;;;19.00
10058;BMP180;5068;51.286;7.518;2022-07-10T08:46:22;100324.00;;;19.00
10058;BMP180;5068;51.286;7.518;2022-07-10T08:48:02;100334.00;;;19.00
10058;BMP180;5068;51.286;7.518;2022-07-10T08:49:46;100323.00;;;19.00
10058;BMP180;5068;51.286;7.518;2022-07-10T08:51:35;100324.00;;;19.00
10058;BMP180;5068;51.286;7.518;2022-07-10T08:53:15;100335.00;;;19.10
10058;BMP180;5068;51.286;7.518;2022-07-10T08:54:56;100334.00;;;19.10
10058;BMP180;5068;51.286;7.518;2022-07-10T08:56:33;100333.00;;;19.10
10058;BMP180;5068;51.286;7.518;2022-07-10T08:58:08;100337.00;;;19.10
10058;BMP180;5068;51.286;7.518;2022-07-10T08:59:45;100335.00;;;19.10
10058;BMP180;5068;51.286;7.518;2022-07-10T09:01:18;100325.00;;;19.10
10058;BMP180;5068;51.286;7.518;2022-07-10T09:02:58;100321.00;;;19.10
10058;BMP180;5068;51.286;7.518;2022-07-10T09:04:32;100332.00;;;19.10
10058;BMP180;5068;51.286;7.518;2022-07-10T09:06:06;100333.00;;;19.10
10058;BMP180;5068;51.286;7.518;2022-07-10T09:07:43;100337.00;;;19.20
10058;BMP180;5068;51.286;7.518;2022-07-10T09:09:17;100326.00;;;19.20
10058;BMP180;5068;51.286;7.518;2022-07-10T09:10:52;100331.00;;;19.10
10058;BMP180;5068;51.286;7.518;2022-07-10T09:12:26;100330.00;;;19.10
10058;BMP180;5068;51.286;7.518;2022-07-10T09:14:05;100322.00;;;19.10